createdAt,value
2023-08-15T00:00:13.346Z,999.20
2023-08-15T00:01:13.796Z,999.20
2023-08-15T00:02:13.875Z,999.20
2023-08-15T00:03:14.012Z,999.16
2023-08-15T00:04:12.950Z,999.16
2023-08-15T00:05:12.862Z,999.13
2023-08-15T00:06:13.785Z,999.16
2023-08-15T00:07:14.003Z,999.18
2023-08-15T00:08:13.190Z,999.19
2023-08-15T00:09:13.020Z,999.16
2023-08-15T00:10:13.147Z,999.11
2023-08-15T00:11:13.016Z,999.05
2023-08-15T00:12:13.230Z,999.08
2023-08-15T00:13:13.251Z,999.06
2023-08-15T00:14:13.136Z,999.08
2023-08-15T00:15:13.262Z,999.03
2023-08-15T00:16:13.270Z,999.05
2023-08-15T00:17:13.226Z,999.04
2023-08-15T00:18:13.217Z,999.03
2023-08-15T00:19:13.346Z,999.06
2023-08-15T00:20:13.173Z,999.04
2023-08-15T00:21:13.179Z,999.05
2023-08-15T00:22:12.961Z,999.02
2023-08-15T00:23:12.888Z,998.98
2023-08-15T00:24:12.935Z,998.99
2023-08-15T00:25:12.891Z,998.95
2023-08-15T00:26:12.930Z,998.94
2023-08-15T00:27:12.710Z,998.91
2023-08-15T00:28:13.811Z,998.87
2023-08-15T00:29:13.772Z,998.85
2023-08-15T00:30:13.798Z,998.83
2023-08-15T00:31:13.716Z,998.82
2023-08-15T00:32:13.747Z,998.81
2023-08-15T00:33:13.767Z,998.81
2023-08-15T00:34:13.812Z,998.81
2023-08-15T00:35:13.856Z,998.78
2023-08-15T00:36:13.703Z,998.74
2023-08-15T00:37:13.530Z,998.72
2023-08-15T00:38:13.381Z,998.67
2023-08-15T00:39:13.340Z,998.68
2023-08-15T00:40:13.309Z,998.71
2023-08-15T00:41:13.358Z,998.71
2023-08-15T00:42:13.384Z,998.73
2023-08-15T00:43:13.385Z,998.73
2023-08-15T00:44:13.422Z,998.74
2023-08-15T00:45:13.527Z,998.78
2023-08-15T00:46:13.699Z,998.78
2023-08-15T00:47:13.634Z,998.83
2023-08-15T00:48:13.394Z,998.81
2023-08-15T00:49:13.371Z,998.82
2023-08-15T00:50:14.079Z,998.82
2023-08-15T00:51:13.223Z,998.82
2023-08-15T00:52:13.181Z,998.84
2023-08-15T00:53:13.134Z,998.83
2023-08-15T00:54:12.951Z,998.79
2023-08-15T00:55:13.003Z,998.81
2023-08-15T00:56:12.946Z,998.79
2023-08-15T00:57:12.722Z,998.77
2023-08-15T00:58:13.505Z,998.75
2023-08-15T00:59:13.304Z,998.74
2023-08-15T01:00:13.363Z,998.72
2023-08-15T01:01:13.279Z,998.72
2023-08-15T01:02:13.271Z,998.74
2023-08-15T01:03:13.463Z,998.71
2023-08-15T01:04:13.566Z,998.72
2023-08-15T01:05:13.639Z,998.70
2023-08-15T01:06:13.500Z,998.65
2023-08-15T01:07:13.706Z,998.69
2023-08-15T01:08:13.834Z,998.66
2023-08-15T01:09:13.815Z,998.64
2023-08-15T01:10:13.786Z,998.63
2023-08-15T01:11:13.724Z,998.58
2023-08-15T01:12:13.730Z,998.59
2023-08-15T01:13:13.666Z,998.60
2023-08-15T01:14:13.700Z,998.60
2023-08-15T01:15:13.842Z,998.61
2023-08-15T01:16:13.904Z,998.64
2023-08-15T01:17:13.021Z,998.62
2023-08-15T01:18:13.242Z,998.62
2023-08-15T01:19:13.212Z,998.67
2023-08-15T01:20:12.906Z,998.65
2023-08-15T01:21:12.823Z,998.63
2023-08-15T01:22:13.781Z,998.64
2023-08-15T01:23:13.663Z,998.61
2023-08-15T01:24:14.124Z,998.55
2023-08-15T01:25:13.211Z,998.56
2023-08-15T01:26:12.941Z,998.52
2023-08-15T01:27:13.092Z,998.51
2023-08-15T01:28:13.231Z,998.54
2023-08-15T01:29:13.108Z,998.55
2023-08-15T01:30:12.961Z,998.55
2023-08-15T01:31:14.632Z,998.54
2023-08-15T01:32:13.633Z,998.53
2023-08-15T01:33:13.708Z,998.53
2023-08-15T01:34:13.684Z,998.53
2023-08-15T01:35:13.681Z,998.50
2023-08-15T01:36:13.961Z,998.48
2023-08-15T01:37:12.685Z,998.48
2023-08-15T01:38:13.751Z,998.50
2023-08-15T01:39:14.088Z,998.49
2023-08-15T01:40:13.006Z,998.45
2023-08-15T01:41:13.044Z,998.43
2023-08-15T01:42:12.912Z,998.42
2023-08-15T01:43:12.831Z,998.38
2023-08-15T01:44:13.739Z,998.39
2023-08-15T01:45:13.649Z,998.37
2023-08-15T01:46:13.560Z,998.38
2023-08-15T01:47:13.477Z,998.35
2023-08-15T01:48:13.334Z,998.33
2023-08-15T01:49:13.336Z,998.31
2023-08-15T01:50:18.401Z,998.26
2023-08-15T01:51:13.714Z,998.23
2023-08-15T01:52:13.590Z,998.20
2023-08-15T01:53:13.358Z,998.23
2023-08-15T01:54:13.321Z,998.23
2023-08-15T01:55:13.338Z,998.24
2023-08-15T01:56:13.414Z,998.27
2023-08-15T01:57:13.144Z,998.32
2023-08-15T01:58:12.937Z,998.30
2023-08-15T01:59:13.161Z,998.32
2023-08-15T02:00:13.352Z,998.28
2023-08-15T02:01:13.636Z,998.31
2023-08-15T02:02:13.672Z,998.30
2023-08-15T02:03:13.657Z,998.36
2023-08-15T02:04:13.774Z,998.37
2023-08-15T02:05:13.835Z,998.37
2023-08-15T02:06:12.931Z,998.39
2023-08-15T02:07:13.009Z,998.43
2023-08-15T02:08:13.016Z,998.46
2023-08-15T02:09:12.798Z,998.49
2023-08-15T02:10:13.938Z,998.50
2023-08-15T02:11:13.052Z,998.54
2023-08-15T02:12:13.129Z,998.54
2023-08-15T02:13:13.054Z,998.53
2023-08-15T02:14:13.062Z,998.53
2023-08-15T02:15:12.950Z,998.56
2023-08-15T02:16:13.034Z,998.56
2023-08-15T02:17:13.065Z,998.58
2023-08-15T02:18:12.886Z,998.59
2023-08-15T02:19:13.423Z,998.60
2023-08-15T02:20:13.641Z,998.60
2023-08-15T02:21:13.574Z,998.60
2023-08-15T02:22:13.678Z,998.53
2023-08-15T02:23:13.808Z,998.57
2023-08-15T02:24:13.771Z,998.53
2023-08-15T02:25:13.600Z,998.54
2023-08-15T02:26:13.614Z,998.55
2023-08-15T02:27:13.875Z,998.55
2023-08-15T02:28:13.788Z,998.57
2023-08-15T02:29:13.669Z,998.54
2023-08-15T02:30:13.604Z,998.56
2023-08-15T02:31:13.687Z,998.57
2023-08-15T02:32:13.639Z,998.57
2023-08-15T02:33:13.645Z,998.53
2023-08-15T02:34:13.790Z,998.51
2023-08-15T02:35:13.836Z,998.48
2023-08-15T02:36:13.838Z,998.47
2023-08-15T02:37:13.732Z,998.49
2023-08-15T02:38:13.814Z,998.50
2023-08-15T02:39:13.632Z,998.50
2023-08-15T02:40:13.539Z,998.52
2023-08-15T02:41:13.444Z,998.51
2023-08-15T02:42:13.591Z,998.52
2023-08-15T02:43:13.777Z,998.53
2023-08-15T02:44:13.848Z,998.50
2023-08-15T02:45:13.696Z,998.49
2023-08-15T02:46:13.593Z,998.45
2023-08-15T02:47:13.615Z,998.47
2023-08-15T02:48:13.631Z,998.49
2023-08-15T02:49:13.513Z,998.52
2023-08-15T02:50:14.012Z,998.56
2023-08-15T02:51:12.810Z,998.60
2023-08-15T02:52:13.852Z,998.60
2023-08-15T02:53:13.744Z,998.62
2023-08-15T02:54:13.652Z,998.56
2023-08-15T02:55:13.477Z,998.57
2023-08-15T02:56:13.221Z,998.52
2023-08-15T02:57:13.107Z,998.50
2023-08-15T02:58:13.165Z,998.48
2023-08-15T02:59:13.029Z,998.45
2023-08-15T03:00:12.793Z,998.42
2023-08-15T03:01:13.605Z,998.41
2023-08-15T03:02:13.802Z,998.41
2023-08-15T03:03:12.859Z,998.37
2023-08-15T03:04:13.205Z,998.34
2023-08-15T03:05:13.247Z,998.32
2023-08-15T03:06:13.160Z,998.26
2023-08-15T03:07:13.234Z,998.26
2023-08-15T03:08:13.330Z,998.28
2023-08-15T03:09:13.444Z,998.29
2023-08-15T03:10:13.468Z,998.29
2023-08-15T03:11:13.511Z,998.30
2023-08-15T03:12:13.533Z,998.27
2023-08-15T03:13:13.510Z,998.27
2023-08-15T03:14:13.415Z,998.20
2023-08-15T03:15:13.443Z,998.14
2023-08-15T03:16:13.527Z,998.09
2023-08-15T03:17:13.261Z,998.10
2023-08-15T03:18:13.657Z,998.15
2023-08-15T03:19:13.728Z,998.20
2023-08-15T03:20:13.834Z,998.27
2023-08-15T03:21:13.843Z,998.36
2023-08-15T03:22:13.786Z,998.37
2023-08-15T03:23:13.849Z,998.36
2023-08-15T03:24:13.849Z,998.32
2023-08-15T03:25:13.898Z,998.33
2023-08-15T03:26:17.768Z,998.29
2023-08-15T03:27:13.576Z,998.29
2023-08-15T03:28:13.360Z,998.32
2023-08-15T03:29:13.659Z,998.32
2023-08-15T03:30:13.773Z,998.33
2023-08-15T03:31:14.083Z,998.35
2023-08-15T03:32:13.098Z,998.34
2023-08-15T03:33:13.413Z,998.39
2023-08-15T03:34:13.248Z,998.39
2023-08-15T03:35:13.149Z,998.38
2023-08-15T03:36:13.072Z,998.42
2023-08-15T03:37:12.989Z,998.45
2023-08-15T03:38:12.906Z,998.48
2023-08-15T03:39:13.173Z,998.44
2023-08-15T03:40:13.574Z,998.41
2023-08-15T03:41:13.641Z,998.34
2023-08-15T03:42:13.909Z,998.35
2023-08-15T03:43:12.790Z,998.34
2023-08-15T03:44:13.840Z,998.31
2023-08-15T03:45:14.105Z,998.33
2023-08-15T03:46:13.278Z,998.35
2023-08-15T03:47:13.458Z,998.38
2023-08-15T03:48:13.359Z,998.39
2023-08-15T03:49:13.316Z,998.42
2023-08-15T03:50:13.052Z,998.47
2023-08-15T03:51:19.027Z,998.50
2023-08-15T03:52:13.582Z,998.54
2023-08-15T03:53:13.450Z,998.55
2023-08-15T03:54:13.406Z,998.60
2023-08-15T03:55:13.323Z,998.65
2023-08-15T03:56:13.634Z,998.63
2023-08-15T03:57:13.430Z,998.61
2023-08-15T03:58:13.198Z,998.66
2023-08-15T03:59:12.996Z,998.68
2023-08-15T04:00:12.816Z,998.70
2023-08-15T04:01:13.547Z,998.65
2023-08-15T04:02:13.702Z,998.72
2023-08-15T04:03:13.569Z,998.72
2023-08-15T04:04:13.450Z,998.75
2023-08-15T04:05:13.263Z,998.74
2023-08-15T04:06:13.285Z,998.77
2023-08-15T04:07:13.198Z,998.78
2023-08-15T04:08:13.073Z,998.82
2023-08-15T04:09:12.959Z,998.80
2023-08-15T04:10:12.887Z,998.81
2023-08-15T04:11:12.867Z,998.82
2023-08-15T04:12:13.808Z,998.87
2023-08-15T04:13:13.707Z,998.86
2023-08-15T04:14:13.647Z,998.85
2023-08-15T04:15:13.481Z,998.86
2023-08-15T04:16:13.723Z,998.84
2023-08-15T04:17:14.146Z,998.81
2023-08-15T04:18:13.047Z,998.84
2023-08-15T04:19:12.891Z,998.82
2023-08-15T04:20:12.652Z,998.81
2023-08-15T04:21:13.415Z,998.82
2023-08-15T04:22:13.243Z,998.84
2023-08-15T04:23:13.059Z,998.89
2023-08-15T04:24:13.272Z,998.94
2023-08-15T04:25:13.175Z,999.00
2023-08-15T04:26:13.208Z,999.04
2023-08-15T04:27:13.251Z,999.01
2023-08-15T04:28:13.449Z,998.98
2023-08-15T04:29:13.397Z,998.90
2023-08-15T04:30:13.273Z,998.87
2023-08-15T04:31:13.307Z,998.79
2023-08-15T04:32:13.578Z,998.94
2023-08-15T04:33:13.680Z,998.99
2023-08-15T04:34:13.521Z,999.02
2023-08-15T04:35:13.388Z,999.10
2023-08-15T04:36:13.213Z,999.17
2023-08-15T04:37:12.991Z,999.26
2023-08-15T04:38:13.168Z,999.38
2023-08-15T04:39:13.330Z,999.39
2023-08-15T04:40:13.555Z,999.39
2023-08-15T04:41:13.582Z,999.44
2023-08-15T04:42:14.201Z,999.48
2023-08-15T04:43:13.134Z,999.56
2023-08-15T04:44:13.202Z,999.54
2023-08-15T04:45:13.135Z,999.64
2023-08-15T04:46:13.081Z,999.70
2023-08-15T04:47:13.259Z,999.73
2023-08-15T04:48:13.251Z,999.76
2023-08-15T04:49:13.350Z,999.87
2023-08-15T04:50:13.236Z,999.82
2023-08-15T04:51:13.121Z,999.89
2023-08-15T04:52:13.488Z,999.95
2023-08-15T04:53:13.779Z,1000.00
2023-08-15T04:54:13.879Z,999.95
2023-08-15T04:55:12.809Z,999.89
2023-08-15T04:56:13.657Z,999.87
2023-08-15T04:57:13.521Z,999.90
2023-08-15T04:58:13.406Z,999.87
2023-08-15T04:59:13.298Z,999.90
2023-08-15T05:00:13.279Z,999.87
2023-08-15T05:01:13.238Z,999.84
2023-08-15T05:02:13.260Z,999.81
2023-08-15T05:03:13.463Z,999.83
2023-08-15T05:04:13.359Z,999.80
2023-08-15T05:05:13.360Z,999.84
2023-08-15T05:06:13.303Z,999.90
2023-08-15T05:07:13.153Z,999.90
2023-08-15T05:08:13.081Z,999.91
2023-08-15T05:09:13.228Z,999.86
2023-08-15T05:10:13.142Z,999.87
2023-08-15T05:11:12.941Z,999.91
2023-08-15T05:12:12.740Z,999.94
2023-08-15T05:13:13.589Z,999.90
2023-08-15T05:14:13.548Z,999.92
2023-08-15T05:15:13.567Z,999.89
2023-08-15T05:16:13.443Z,999.85
2023-08-15T05:17:13.381Z,999.81
2023-08-15T05:18:13.242Z,999.85
2023-08-15T05:19:13.204Z,999.92
2023-08-15T05:20:13.065Z,1000.00
2023-08-15T05:21:13.472Z,1000.02
2023-08-15T05:22:13.480Z,1000.02
2023-08-15T05:23:13.320Z,999.98
2023-08-15T05:24:13.170Z,999.94
2023-08-15T05:25:13.057Z,999.88
2023-08-15T05:26:12.877Z,999.89
2023-08-15T05:27:13.028Z,999.89
2023-08-15T05:28:12.854Z,999.86
2023-08-15T05:29:13.870Z,999.86
2023-08-15T05:30:12.816Z,999.83
2023-08-15T05:31:14.055Z,999.79
2023-08-15T05:32:13.243Z,999.76
2023-08-15T05:33:13.118Z,999.70
2023-08-15T05:34:13.017Z,999.69
2023-08-15T05:35:12.898Z,999.72
2023-08-15T05:36:12.936Z,999.76
2023-08-15T05:37:12.916Z,999.75
2023-08-15T05:38:12.834Z,999.71
2023-08-15T05:39:13.889Z,999.73
2023-08-15T05:40:12.775Z,999.75
2023-08-15T05:41:13.905Z,999.78
2023-08-15T05:42:12.849Z,999.81
2023-08-15T05:43:13.618Z,999.83
2023-08-15T05:44:13.514Z,999.85
2023-08-15T05:45:13.368Z,999.85
2023-08-15T05:46:13.215Z,999.84
2023-08-15T05:47:12.972Z,999.83
2023-08-15T05:48:12.951Z,999.86
2023-08-15T05:49:12.713Z,999.86
2023-08-15T05:50:13.590Z,999.76
2023-08-15T05:51:13.670Z,999.79
2023-08-15T05:52:13.754Z,999.77
2023-08-15T05:53:13.584Z,999.79
2023-08-15T05:54:13.479Z,999.80
2023-08-15T05:55:13.274Z,999.80
2023-08-15T05:56:13.228Z,999.84
2023-08-15T05:57:13.030Z,999.83
2023-08-15T05:58:12.798Z,999.82
2023-08-15T05:59:13.660Z,999.84
2023-08-15T06:00:13.700Z,999.81
2023-08-15T06:01:13.967Z,999.80
2023-08-15T06:02:12.916Z,999.82
2023-08-15T06:03:13.514Z,999.83
2023-08-15T06:04:13.508Z,999.79
2023-08-15T06:05:13.484Z,999.82
2023-08-15T06:06:13.283Z,999.82
2023-08-15T06:07:13.305Z,999.84
2023-08-15T06:08:13.123Z,999.89
2023-08-15T06:09:13.353Z,999.93
2023-08-15T06:10:13.195Z,999.95
2023-08-15T06:11:13.065Z,999.98
2023-08-15T06:12:12.986Z,1000.04
2023-08-15T06:13:12.840Z,1000.05
2023-08-15T06:14:13.811Z,1000.06
2023-08-15T06:15:13.717Z,1000.07
2023-08-15T06:16:14.184Z,1000.14
2023-08-15T06:17:13.238Z,1000.16
2023-08-15T06:18:13.038Z,1000.13
2023-08-15T06:19:13.110Z,1000.16
2023-08-15T06:20:13.168Z,1000.15
2023-08-15T06:21:13.394Z,1000.16
2023-08-15T06:22:13.541Z,1000.17
2023-08-15T06:23:13.493Z,1000.20
2023-08-15T06:24:13.370Z,1000.26
2023-08-15T06:25:13.166Z,1000.27
2023-08-15T06:26:13.078Z,1000.27
2023-08-15T06:27:13.025Z,1000.34
2023-08-15T06:28:12.805Z,1000.33
2023-08-15T06:29:13.532Z,1000.35
2023-08-15T06:30:13.416Z,1000.35
2023-08-15T06:31:13.293Z,1000.37
2023-08-15T06:32:13.329Z,1000.34
2023-08-15T06:33:13.180Z,1000.33
2023-08-15T06:34:13.202Z,1000.31
2023-08-15T06:35:12.981Z,1000.29
2023-08-15T06:36:13.511Z,1000.30
2023-08-15T06:37:13.474Z,1000.31
2023-08-15T06:38:13.332Z,1000.31
2023-08-15T06:39:13.146Z,1000.31
2023-08-15T06:40:12.952Z,1000.33
2023-08-15T06:41:12.759Z,1000.32
2023-08-15T06:42:13.570Z,1000.28
2023-08-15T06:43:13.585Z,1000.26
2023-08-15T06:44:13.505Z,1000.21
2023-08-15T06:45:13.730Z,1000.22
2023-08-15T06:46:13.633Z,1000.16
2023-08-15T06:47:13.457Z,1000.19
2023-08-15T06:48:13.248Z,1000.23
2023-08-15T06:49:12.963Z,1000.20
2023-08-15T06:50:12.972Z,1000.23
2023-08-15T06:51:13.148Z,1000.26
2023-08-15T06:52:12.933Z,1000.32
2023-08-15T06:53:12.797Z,1000.36
2023-08-15T06:54:13.785Z,1000.34
2023-08-15T06:55:13.757Z,1000.39
2023-08-15T06:56:13.758Z,1000.41
2023-08-15T06:57:13.679Z,1000.37
2023-08-15T06:58:13.675Z,1000.38
2023-08-15T06:59:13.546Z,1000.44
2023-08-15T07:00:13.751Z,1000.48
2023-08-15T07:01:13.850Z,1000.48
2023-08-15T07:02:13.831Z,1000.43
2023-08-15T07:03:14.052Z,1000.39
2023-08-15T07:04:13.638Z,1000.46
2023-08-15T07:05:13.536Z,1000.41
2023-08-15T07:06:13.725Z,1000.39
2023-08-15T07:07:13.564Z,1000.39
2023-08-15T07:08:13.472Z,1000.37
2023-08-15T07:09:13.866Z,1000.38
2023-08-15T07:10:13.056Z,1000.41
2023-08-15T07:11:13.040Z,1000.42
2023-08-15T07:12:12.892Z,1000.43
2023-08-15T07:13:13.770Z,1000.39
2023-08-15T07:14:13.692Z,1000.36
2023-08-15T07:15:15.275Z,1000.31
2023-08-15T07:16:13.194Z,1000.35
2023-08-15T07:17:13.001Z,1000.36
2023-08-15T07:18:12.944Z,1000.35
2023-08-15T07:19:13.157Z,1000.37
2023-08-15T07:20:13.192Z,1000.37
2023-08-15T07:21:21.282Z,1000.34
2023-08-15T07:22:13.223Z,1000.36
2023-08-15T07:23:13.054Z,1000.33
2023-08-15T07:24:12.893Z,1000.37
2023-08-15T07:25:12.756Z,1000.38
2023-08-15T07:26:13.665Z,1000.42
2023-08-15T07:27:13.615Z,1000.42
2023-08-15T07:28:13.839Z,1000.41
2023-08-15T07:29:13.859Z,1000.39
2023-08-15T07:30:13.877Z,1000.39
2023-08-15T07:31:12.791Z,1000.43
2023-08-15T07:32:13.965Z,1000.41
2023-08-15T07:33:13.127Z,1000.44
2023-08-15T07:34:13.053Z,1000.46
2023-08-15T07:35:12.808Z,1000.50
2023-08-15T07:36:13.735Z,1000.53
2023-08-15T07:37:13.877Z,1000.54
2023-08-15T07:38:12.980Z,1000.56
2023-08-15T07:39:13.027Z,1000.58
2023-08-15T07:40:12.771Z,1000.63
2023-08-15T07:41:13.610Z,1000.63
2023-08-15T07:42:13.611Z,1000.64
2023-08-15T07:43:13.448Z,1000.70
2023-08-15T07:44:13.190Z,1000.72
2023-08-15T07:45:13.039Z,1000.67
2023-08-15T07:46:13.059Z,1000.68
2023-08-15T07:47:12.927Z,1000.65
2023-08-15T07:48:13.085Z,1000.69
2023-08-15T07:49:12.955Z,1000.68
2023-08-15T07:50:12.973Z,1000.66
2023-08-15T07:51:12.912Z,1000.65
2023-08-15T07:52:18.144Z,1000.62
2023-08-15T07:53:12.891Z,1000.63
2023-08-15T07:54:12.665Z,1000.67
2023-08-15T07:55:13.526Z,1000.70
2023-08-15T07:56:13.325Z,1000.72
2023-08-15T07:57:13.318Z,1000.77
2023-08-15T07:58:13.102Z,1000.81
2023-08-15T07:59:12.995Z,1000.80
2023-08-15T08:00:12.834Z,1000.81
2023-08-15T08:01:13.755Z,1000.88
2023-08-15T08:02:14.225Z,1000.97
2023-08-15T08:03:13.128Z,1000.97
2023-08-15T08:04:12.936Z,1000.99
2023-08-15T08:05:12.880Z,1000.99
2023-08-15T08:06:31.858Z,1000.95
2023-08-15T08:07:13.512Z,1000.93
2023-08-15T08:08:13.427Z,1000.95
2023-08-15T08:09:13.399Z,1000.94
2023-08-15T08:10:13.206Z,1000.93
2023-08-15T08:11:13.278Z,1000.98
2023-08-15T08:12:13.151Z,1000.96
2023-08-15T08:13:13.004Z,1000.95
2023-08-15T08:14:12.806Z,1000.97
2023-08-15T08:15:13.526Z,1001.02
2023-08-15T08:16:13.336Z,1001.05
2023-08-15T08:17:13.199Z,1001.06
2023-08-15T08:18:13.351Z,1001.10
2023-08-15T08:19:13.246Z,1001.10
2023-08-15T08:20:13.142Z,1001.08
2023-08-15T08:21:13.007Z,1001.07
2023-08-15T08:22:13.131Z,1001.06
2023-08-15T08:23:13.057Z,1001.09
2023-08-15T08:24:12.932Z,1001.08
2023-08-15T08:25:12.971Z,1001.11
2023-08-15T08:26:12.830Z,1001.12
2023-08-15T08:27:14.061Z,1001.16
2023-08-15T08:28:13.049Z,1001.17
2023-08-15T08:29:12.949Z,1001.18
2023-08-15T08:30:49.190Z,1001.18
2023-08-15T08:31:01.120Z,1001.18
2023-08-15T08:31:13.121Z,1001.19
2023-08-15T08:32:13.125Z,1001.19
2023-08-15T08:33:13.131Z,1001.19
2023-08-15T08:34:13.112Z,1001.25
2023-08-15T08:35:13.124Z,1001.25
2023-08-15T08:36:12.988Z,1001.28
2023-08-15T08:37:12.909Z,1001.29
2023-08-15T08:38:12.894Z,1001.30
2023-08-15T08:39:25.472Z,1001.29
2023-08-15T08:40:12.921Z,1001.34
2023-08-15T08:41:13.054Z,1001.37
2023-08-15T08:42:13.327Z,1001.35
2023-08-15T08:43:13.302Z,1001.34
2023-08-15T08:44:13.151Z,1001.32
2023-08-15T08:45:13.057Z,1001.26
2023-08-15T08:46:13.153Z,1001.29
2023-08-15T08:47:13.282Z,1001.28
2023-08-15T08:48:13.235Z,1001.26
2023-08-15T08:49:13.431Z,1001.28
2023-08-15T08:50:13.440Z,1001.29
2023-08-15T08:51:13.472Z,1001.33
2023-08-15T08:52:13.525Z,1001.33
2023-08-15T08:53:13.637Z,1001.31
2023-08-15T08:54:14.361Z,1001.28
2023-08-15T08:55:13.795Z,1001.28
2023-08-15T08:56:13.605Z,1001.27
2023-08-15T08:57:13.901Z,1001.30
2023-08-15T08:58:12.874Z,1001.29
2023-08-15T08:59:12.942Z,1001.29
2023-08-15T09:00:12.887Z,1001.30
2023-08-15T09:01:13.031Z,1001.30
2023-08-15T09:02:12.995Z,1001.33
2023-08-15T09:03:12.986Z,1001.33
2023-08-15T09:04:12.969Z,1001.37
2023-08-15T09:05:12.993Z,1001.35
2023-08-15T09:06:12.870Z,1001.36
2023-08-15T09:07:12.735Z,1001.34
2023-08-15T09:08:13.782Z,1001.38
2023-08-15T09:09:13.749Z,1001.41
2023-08-15T09:10:13.872Z,1001.40
2023-08-15T09:11:13.109Z,1001.39
2023-08-15T09:12:13.195Z,1001.36
2023-08-15T09:13:13.282Z,1001.37
2023-08-15T09:14:13.367Z,1001.42
2023-08-15T09:15:13.247Z,1001.46
2023-08-15T09:16:13.376Z,1001.45
2023-08-15T09:17:13.507Z,1001.46
2023-08-15T09:18:13.415Z,1001.47
2023-08-15T09:19:13.294Z,1001.51
2023-08-15T09:20:13.147Z,1001.51
2023-08-15T09:21:13.213Z,1001.54
2023-08-15T09:22:13.307Z,1001.55
2023-08-15T09:23:13.308Z,1001.54
2023-08-15T09:24:13.041Z,1001.56
2023-08-15T09:25:12.937Z,1001.56
2023-08-15T09:26:12.876Z,1001.52
2023-08-15T09:27:12.923Z,1001.53
2023-08-15T09:28:12.947Z,1001.52
2023-08-15T09:29:12.889Z,1001.50
2023-08-15T09:30:12.980Z,1001.50
2023-08-15T09:31:13.236Z,1001.49
2023-08-15T09:32:13.166Z,1001.48
2023-08-15T09:33:13.218Z,1001.48
2023-08-15T09:34:13.080Z,1001.48
2023-08-15T09:35:12.905Z,1001.50
2023-08-15T09:36:12.765Z,1001.50
2023-08-15T09:37:13.729Z,1001.50
2023-08-15T09:38:13.584Z,1001.48
2023-08-15T09:39:13.652Z,1001.45
2023-08-15T09:40:13.657Z,1001.52
2023-08-15T09:41:13.747Z,1001.53
2023-08-15T09:42:13.823Z,1001.52
2023-08-15T09:43:14.071Z,1001.51
2023-08-15T09:44:13.347Z,1001.54
2023-08-15T09:45:13.530Z,1001.55
2023-08-15T09:46:13.598Z,1001.55
2023-08-15T09:47:13.787Z,1001.57
2023-08-15T09:48:14.135Z,1001.59
2023-08-15T09:49:13.492Z,1001.55
2023-08-15T09:50:13.371Z,1001.59
2023-08-15T09:51:13.384Z,1001.61
2023-08-15T09:52:13.215Z,1001.59
2023-08-15T09:53:13.310Z,1001.57
2023-08-15T09:54:13.197Z,1001.59
2023-08-15T09:55:13.311Z,1001.57
2023-08-15T09:56:13.109Z,1001.60
2023-08-15T09:57:13.286Z,1001.60
2023-08-15T09:58:13.852Z,1001.62
2023-08-15T09:59:12.750Z,1001.62
2023-08-15T10:00:13.774Z,1001.59
2023-08-15T10:01:13.837Z,1001.60
2023-08-15T10:02:12.850Z,1001.63
2023-08-15T10:03:13.972Z,1001.64
2023-08-15T10:04:13.037Z,1001.66
2023-08-15T10:05:13.039Z,1001.68
2023-08-15T10:06:14.276Z,1001.74
2023-08-15T10:07:13.341Z,1001.74
2023-08-15T10:08:13.031Z,1001.78
2023-08-15T10:09:13.264Z,1001.81
2023-08-15T10:10:13.260Z,1001.82
2023-08-15T10:11:13.350Z,1001.86
2023-08-15T10:12:13.339Z,1001.85
2023-08-15T10:13:13.393Z,1001.81
2023-08-15T10:14:13.357Z,1001.82
2023-08-15T10:15:13.316Z,1001.81
2023-08-15T10:16:13.382Z,1001.80
2023-08-15T10:17:13.527Z,1001.83
2023-08-15T10:18:14.233Z,1001.81
2023-08-15T10:19:13.064Z,1001.82
2023-08-15T10:20:12.989Z,1001.84
2023-08-15T10:21:12.964Z,1001.83
2023-08-15T10:22:13.098Z,1001.87
2023-08-15T10:23:13.061Z,1001.88
2023-08-15T10:24:12.940Z,1001.93
2023-08-15T10:25:13.137Z,1001.88
2023-08-15T10:26:13.092Z,1001.89
2023-08-15T10:27:13.648Z,1001.93
2023-08-15T10:28:13.763Z,1001.95
2023-08-15T10:29:13.589Z,1001.96
2023-08-15T10:30:14.156Z,1001.97
2023-08-15T10:31:13.845Z,1001.98
2023-08-15T10:32:13.912Z,1001.97
2023-08-15T10:33:13.044Z,1001.98
2023-08-15T10:34:13.013Z,1001.98
2023-08-15T10:35:12.867Z,1001.94
2023-08-15T10:36:12.868Z,1001.97
2023-08-15T10:37:12.772Z,1001.90
2023-08-15T10:38:13.863Z,1001.90
2023-08-15T10:39:17.915Z,1001.90
2023-08-15T10:40:12.968Z,1001.85
2023-08-15T10:41:12.701Z,1001.91
2023-08-15T10:42:13.650Z,1001.89
2023-08-15T10:43:13.734Z,1001.92
2023-08-15T10:44:13.642Z,1001.95
2023-08-15T10:45:13.806Z,1001.89
2023-08-15T10:46:13.841Z,1001.93
2023-08-15T10:47:12.773Z,1001.92
2023-08-15T10:48:13.896Z,1001.92
2023-08-15T10:49:12.807Z,1001.89
2023-08-15T10:50:19.345Z,1001.91
2023-08-15T10:51:13.437Z,1001.93
2023-08-15T10:52:13.380Z,1001.96
2023-08-15T10:53:13.266Z,1001.99
2023-08-15T10:54:13.205Z,1001.98
2023-08-15T10:55:13.262Z,1002.00
2023-08-15T10:56:13.210Z,1002.01
2023-08-15T10:57:13.043Z,1002.02
2023-08-15T10:58:12.777Z,1001.99
2023-08-15T10:59:13.881Z,1001.98
2023-08-15T11:00:12.838Z,1001.96
2023-08-15T11:01:13.943Z,1001.99
2023-08-15T11:02:12.858Z,1002.04
2023-08-15T11:03:13.777Z,1002.01
2023-08-15T11:04:13.703Z,1001.99
2023-08-15T11:05:13.790Z,1001.98
2023-08-15T11:06:13.814Z,1001.99
2023-08-15T11:07:13.642Z,1002.00
2023-08-15T11:08:13.686Z,1001.99
2023-08-15T11:09:13.566Z,1002.03
2023-08-15T11:10:13.632Z,1002.03
2023-08-15T11:11:13.515Z,1002.05
2023-08-15T11:12:13.448Z,1002.06
2023-08-15T11:13:13.351Z,1001.99
2023-08-15T11:14:13.409Z,1002.00
2023-08-15T11:15:13.437Z,1002.06
2023-08-15T11:16:13.474Z,1001.99
2023-08-15T11:17:13.600Z,1002.06
2023-08-15T11:18:13.517Z,1002.07
2023-08-15T11:19:13.389Z,1002.07
2023-08-15T11:20:13.149Z,1002.08
2023-08-15T11:21:13.327Z,1002.08
2023-08-15T11:22:13.492Z,1002.06
2023-08-15T11:23:13.567Z,1002.08
2023-08-15T11:24:13.327Z,1002.08
2023-08-15T11:25:13.141Z,1002.08
2023-08-15T11:26:13.148Z,1002.13
2023-08-15T11:27:13.241Z,1002.09
2023-08-15T11:28:13.102Z,1002.13
2023-08-15T11:29:13.074Z,1002.14
2023-08-15T11:30:13.174Z,1002.18
2023-08-15T11:32:13.240Z,1002.17
2023-08-15T11:33:13.282Z,1002.15
2023-08-15T11:34:13.385Z,1002.15
2023-08-15T11:35:13.496Z,1002.16
2023-08-15T11:36:13.414Z,1002.16
2023-08-15T11:37:13.286Z,1002.18
2023-08-15T11:38:13.325Z,1002.19
2023-08-15T11:39:13.276Z,1002.25
2023-08-15T11:40:13.380Z,1002.25
2023-08-15T11:41:13.321Z,1002.23
2023-08-15T11:42:13.216Z,1002.25
2023-08-15T11:43:13.087Z,1002.29
2023-08-15T11:44:12.999Z,1002.30
2023-08-15T11:45:12.971Z,1002.31
2023-08-15T11:46:12.960Z,1002.28
2023-08-15T11:47:12.903Z,1002.27
2023-08-15T11:48:19.587Z,1002.30
2023-08-15T11:49:13.552Z,1002.35
2023-08-15T11:50:13.421Z,1002.33
2023-08-15T11:51:13.512Z,1002.37
2023-08-15T11:52:13.401Z,1002.36
2023-08-15T11:53:13.313Z,1002.35
2023-08-15T11:54:13.228Z,1002.35
2023-08-15T11:55:13.078Z,1002.33
2023-08-15T11:56:13.304Z,1002.32
2023-08-15T11:57:13.233Z,1002.37
2023-08-15T11:58:13.183Z,1002.40
2023-08-15T11:59:12.993Z,1002.38
2023-08-15T12:00:13.014Z,1002.37
2023-08-15T12:01:13.072Z,1002.42
2023-08-15T12:02:13.184Z,1002.38
2023-08-15T12:03:13.317Z,1002.38
2023-08-15T12:04:13.471Z,1002.35
2023-08-15T12:05:13.440Z,1002.35
2023-08-15T12:06:13.808Z,1002.36
2023-08-15T12:07:13.797Z,1002.36
2023-08-15T12:08:13.784Z,1002.38
2023-08-15T12:09:13.691Z,1002.34
2023-08-15T12:10:13.861Z,1002.36
2023-08-15T12:11:12.967Z,1002.34
2023-08-15T12:12:12.887Z,1002.35
2023-08-15T12:13:13.719Z,1002.35
2023-08-15T12:14:13.559Z,1002.39
2023-08-15T12:15:13.591Z,1002.37
2023-08-15T12:16:13.557Z,1002.34